Portada
METAR-TAF:

METAR-TAF

Aeroports :

Dimapur, Índia

latitud: 25-53-02N, longitud: 093-46-16E, altitud: 148 m

METAR: manca

Hora: 13:39 (08:09 UTC)

Pronòstic

L'informe es va fer fa 3 hores i 9 minuts, a les 05:00 UTC
Pronòstic vàlid del 31 a les 06 UTC al 31 a les 15 UTC
Vent 5 kt del Nord-Oest
Visibilitat: 5000 m
Escasses núvols a una alçada de 2000 ft
Núvols disperses a una alçada de 10000 ft
calitja
Evolucionant progressivament
l' 31 a les 13 UTC al 31 a les 15 UTC
Vent kt del Nord
Visibilitat: 3000 m
boirina

TAF: VEMR 310500Z 3106/3115 32005KT 5000 HZ FEW020 SCT100 BECMG 3113/3115 00000KT 3000 BR

Observacions i pronòstics meteorològics de més de 4000 aeroports (METAR i TAF).

Les estacions disponibles són els punts grocs i vermells al mapa.

Posi el ratolí al punt desitjat per veure el nom de l'estació.

Feu clic per veure les observacions i els pronòstics meteorològics.

Per canviar el mapa: feu clic els botons verds amb una creu de color negre per apropar; al botó verd amb un guió per allunyar la imatge; o en les fletxes verdes per a mapes adjacents.


METAR-TAF: